createdAt,value
2019-04-25T00:00:13.922Z,0
2019-04-25T00:01:16.248Z,0
2019-04-25T00:02:16.030Z,0
2019-04-25T00:03:14.700Z,0
2019-04-25T00:04:16.193Z,0
2019-04-25T00:05:16.112Z,0
2019-04-25T00:06:14.418Z,0
2019-04-25T00:07:14.488Z,0
2019-04-25T00:08:16.311Z,0
2019-04-25T00:09:16.172Z,0
2019-04-25T00:10:16.197Z,0
2019-04-25T00:11:16.415Z,0
2019-04-25T00:12:14.993Z,0
2019-04-25T00:13:16.532Z,0
2019-04-25T00:14:16.336Z,0
2019-04-25T00:15:15.457Z,0
2019-04-25T00:16:13.879Z,0
2019-04-25T00:17:15.839Z,0
2019-04-25T00:18:14.384Z,0
2019-04-25T00:19:14.362Z,0
2019-04-25T00:20:15.896Z,0
2019-04-25T00:21:14.608Z,0
2019-04-25T00:22:14.173Z,0
2019-04-25T00:23:14.321Z,0
2019-04-25T00:24:14.601Z,0
2019-04-25T00:25:26.660Z,0
2019-04-25T00:26:15.616Z,0
2019-04-25T00:27:16.242Z,0
2019-04-25T00:28:14.342Z,0
2019-04-25T00:29:15.400Z,0
2019-04-25T00:30:16.041Z,0
2019-04-25T00:31:14.387Z,0
2019-04-25T00:32:16.442Z,0
2019-04-25T00:33:14.503Z,0
2019-04-25T00:34:14.539Z,0
2019-04-25T00:35:16.521Z,0
2019-04-25T00:36:14.497Z,0
2019-04-25T00:37:16.176Z,0
2019-04-25T00:38:14.381Z,0
2019-04-25T00:39:14.325Z,0
2019-04-25T00:40:15.966Z,0
2019-04-25T00:41:16.343Z,0
2019-04-25T00:42:14.695Z,0
2019-04-25T00:43:15.652Z,0
2019-04-25T00:44:14.306Z,0
2019-04-25T00:45:16.489Z,0
2019-04-25T00:46:15.875Z,0
2019-04-25T00:47:14.234Z,0
2019-04-25T00:48:14.462Z,0
2019-04-25T00:49:14.703Z,0
2019-04-25T00:50:14.390Z,0
2019-04-25T00:51:14.236Z,0
2019-04-25T00:52:16.343Z,0
2019-04-25T00:53:16.085Z,0
2019-04-25T00:54:14.326Z,0
2019-04-25T00:55:26.771Z,0
2019-04-25T00:56:13.629Z,0
2019-04-25T00:57:14.576Z,0
2019-04-25T00:58:14.167Z,0
2019-04-25T00:59:16.295Z,0
2019-04-25T01:00:14.380Z,0
2019-04-25T01:01:14.516Z,0
2019-04-25T01:02:18.638Z,0
2019-04-25T01:03:14.357Z,0
2019-04-25T01:04:14.682Z,0
2019-04-25T01:05:16.370Z,0
2019-04-25T01:06:14.448Z,0
2019-04-25T01:07:14.868Z,0
2019-04-25T01:08:14.204Z,0
2019-04-25T01:09:14.876Z,0
2019-04-25T01:10:14.327Z,0
2019-04-25T01:11:13.928Z,0
2019-04-25T01:12:14.417Z,0
2019-04-25T01:13:15.451Z,0
2019-04-25T01:14:14.405Z,0
2019-04-25T01:15:14.323Z,0
2019-04-25T01:16:14.460Z,0
2019-04-25T01:17:15.869Z,0
2019-04-25T01:18:14.451Z,0
2019-04-25T01:19:15.794Z,0
2019-04-25T01:20:14.056Z,0
2019-04-25T01:21:14.149Z,0
2019-04-25T01:22:14.482Z,0
2019-04-25T01:23:13.866Z,0
2019-04-25T01:24:14.096Z,0
2019-04-25T01:25:14.013Z,0
2019-04-25T01:26:15.674Z,0
2019-04-25T01:27:15.944Z,0
2019-04-25T01:28:15.399Z,0
2019-04-25T01:29:13.980Z,0
2019-04-25T01:30:16.530Z,0
2019-04-25T01:31:16.175Z,0
2019-04-25T01:32:14.074Z,0
2019-04-25T01:33:15.653Z,0
2019-04-25T01:34:14.323Z,0
2019-04-25T01:35:14.086Z,0
2019-04-25T01:36:15.774Z,0
2019-04-25T01:37:16.304Z,0
2019-04-25T01:38:15.972Z,0
2019-04-25T01:39:14.386Z,0
2019-04-25T01:40:14.174Z,0
2019-04-25T01:41:14.569Z,0
2019-04-25T01:42:16.243Z,0
2019-04-25T01:43:13.867Z,0
2019-04-25T01:44:14.344Z,0
2019-04-25T01:45:14.041Z,0
2019-04-25T01:46:17.066Z,0
2019-04-25T01:47:14.061Z,0
2019-04-25T01:48:16.020Z,0
2019-04-25T01:49:14.131Z,0
2019-04-25T01:50:16.081Z,0
2019-04-25T01:51:14.409Z,0
2019-04-25T01:52:16.040Z,0
2019-04-25T01:53:14.581Z,0
2019-04-25T01:54:14.142Z,0
2019-04-25T01:55:16.146Z,0
2019-04-25T01:56:18.355Z,0
2019-04-25T01:57:14.344Z,0
2019-04-25T01:58:13.773Z,0
2019-04-25T01:59:15.182Z,0
2019-04-25T02:00:14.091Z,0
2019-04-25T02:01:14.374Z,0
2019-04-25T02:02:16.253Z,0
2019-04-25T02:03:13.615Z,0
2019-04-25T02:04:15.587Z,0
2019-04-25T02:05:16.024Z,0
2019-04-25T02:06:16.087Z,0
2019-04-25T02:07:13.654Z,0
2019-04-25T02:08:16.728Z,0
2019-04-25T02:09:16.113Z,0
2019-04-25T02:10:15.818Z,0
2019-04-25T02:11:14.166Z,0
2019-04-25T02:12:20.185Z,0
2019-04-25T02:13:13.980Z,0
2019-04-25T02:14:16.089Z,0
2019-04-25T02:15:16.178Z,0
2019-04-25T02:16:16.177Z,0
2019-04-25T02:17:14.192Z,0
2019-04-25T02:18:14.013Z,0
2019-04-25T02:19:14.474Z,0
2019-04-25T02:20:14.076Z,0
2019-04-25T02:21:13.982Z,0
2019-04-25T02:22:14.528Z,0
2019-04-25T02:23:14.110Z,0
2019-04-25T02:24:16.138Z,0
2019-04-25T02:25:15.746Z,0
2019-04-25T02:26:26.496Z,0
2019-04-25T02:27:15.890Z,0
2019-04-25T02:28:18.045Z,0
2019-04-25T02:29:13.794Z,0
2019-04-25T02:30:17.967Z,0
2019-04-25T02:31:24.534Z,0
2019-04-25T02:32:19.494Z,0
2019-04-25T02:33:19.092Z,0
2019-04-25T02:34:24.771Z,0
2019-04-25T02:35:19.352Z,0
2019-04-25T02:36:20.048Z,0
2019-04-25T02:37:21.590Z,0
2019-04-25T02:38:21.165Z,0
2019-04-25T02:39:19.647Z,0
2019-04-25T02:40:19.064Z,0
2019-04-25T02:41:19.422Z,0
2019-04-25T02:42:21.251Z,0
2019-04-25T02:43:19.103Z,0
2019-04-25T02:44:21.218Z,0
2019-04-25T02:45:21.043Z,0
2019-04-25T02:46:19.859Z,0
2019-04-25T02:47:19.482Z,0
2019-04-25T02:48:16.651Z,0
2019-04-25T02:49:44.663Z,0
2019-04-25T02:50:19.929Z,0
2019-04-25T02:51:19.070Z,0
2019-04-25T02:52:24.662Z,0
2019-04-25T02:53:16.630Z,0
2019-04-25T02:54:18.824Z,0
2019-04-25T02:55:44.417Z,0
2019-04-25T02:56:44.772Z,0
2019-04-25T02:57:19.258Z,0
2019-04-25T02:58:18.949Z,0
2019-04-25T02:59:19.828Z,0
2019-04-25T03:00:19.554Z,0
2019-04-25T03:01:30.685Z,0
2019-04-25T03:02:17.927Z,0
2019-04-25T03:03:19.372Z,0
2019-04-25T03:04:19.317Z,0
2019-04-25T03:05:20.883Z,0
2019-04-25T03:06:19.989Z,0
2019-04-25T03:07:26.937Z,0
2019-04-25T03:08:18.834Z,0
2019-04-25T03:09:17.992Z,0
2019-04-25T03:10:19.705Z,0
2019-04-25T03:11:19.491Z,0
2019-04-25T03:12:38.362Z,0
2019-04-25T03:13:24.306Z,0
2019-04-25T03:14:19.399Z,0
2019-04-25T03:15:19.029Z,0
2019-04-25T03:16:19.026Z,0
2019-04-25T03:17:19.207Z,0
2019-04-25T03:18:21.783Z,0
2019-04-25T03:19:18.862Z,0
2019-04-25T03:20:24.142Z,0
2019-04-25T03:21:24.937Z,0
2019-04-25T03:22:21.558Z,0
2019-04-25T03:23:19.067Z,0
2019-04-25T03:24:25.002Z,0
2019-04-25T03:25:24.770Z,0
2019-04-25T03:26:16.011Z,0
2019-04-25T03:27:16.727Z,0
2019-04-25T03:28:18.088Z,0
2019-04-25T03:29:17.884Z,0
2019-04-25T03:30:25.488Z,0
2019-04-25T03:31:31.538Z,0
2019-04-25T03:32:30.425Z,0
2019-04-25T03:33:28.405Z,0
2019-04-25T03:34:29.961Z,0
2019-04-25T03:35:16.978Z,0
2019-04-25T03:36:19.042Z,0
2019-04-25T03:37:17.969Z,0
2019-04-25T03:38:16.948Z,0
2019-04-25T03:39:18.716Z,0
2019-04-25T03:40:18.620Z,0
2019-04-25T03:41:16.943Z,0
2019-04-25T03:42:16.530Z,0
2019-04-25T03:43:17.403Z,0
2019-04-25T03:44:16.129Z,0
2019-04-25T03:45:17.028Z,0
2019-04-25T03:46:16.465Z,0
2019-04-25T03:47:18.102Z,0
2019-04-25T03:48:16.392Z,0
2019-04-25T03:49:16.393Z,0
2019-04-25T03:50:18.404Z,0
2019-04-25T03:51:17.973Z,0
2019-04-25T03:52:16.630Z,0
2019-04-25T03:53:16.389Z,0
2019-04-25T03:54:19.084Z,0
2019-04-25T03:55:16.828Z,0
2019-04-25T03:56:17.100Z,0
2019-04-25T03:57:16.974Z,0
2019-04-25T03:58:19.464Z,0
2019-04-25T03:59:18.329Z,0
2019-04-25T04:00:16.766Z,0
2019-04-25T04:01:19.452Z,0
2019-04-25T04:02:17.503Z,0
2019-04-25T04:03:17.342Z,0
2019-04-25T04:04:18.500Z,0
2019-04-25T04:05:18.107Z,0
2019-04-25T04:06:19.056Z,0
2019-04-25T04:07:20.378Z,5
2019-04-25T04:08:15.802Z,5
2019-04-25T04:09:18.692Z,5
2019-04-25T04:10:17.743Z,5
2019-04-25T04:11:18.763Z,5
2019-04-25T04:12:17.116Z,5
2019-04-25T04:13:17.863Z,5
2019-04-25T04:14:16.933Z,5
2019-04-25T04:15:18.154Z,5
2019-04-25T04:16:16.782Z,10
2019-04-25T04:17:18.346Z,10
2019-04-25T04:18:19.368Z,10
2019-04-25T04:19:17.961Z,10
2019-04-25T04:20:17.498Z,10
2019-04-25T04:21:18.625Z,10
2019-04-25T04:22:17.734Z,15
2019-04-25T04:23:16.404Z,15
2019-04-25T04:24:16.485Z,15
2019-04-25T04:25:14.695Z,15
2019-04-25T04:26:16.025Z,15
2019-04-25T04:27:20.071Z,20
2019-04-25T04:28:14.930Z,20
2019-04-25T04:29:17.043Z,20
2019-04-25T04:30:15.335Z,25
2019-04-25T04:31:14.284Z,25
2019-04-25T04:32:17.272Z,25
2019-04-25T04:33:32.024Z,25
2019-04-25T04:34:14.628Z,25
2019-04-25T04:35:17.404Z,30
2019-04-25T04:36:14.978Z,30
2019-04-25T04:37:17.536Z,30
2019-04-25T04:38:15.046Z,30
2019-04-25T04:39:18.842Z,35
2019-04-25T04:40:18.629Z,35
2019-04-25T04:41:16.675Z,45
2019-04-25T04:42:16.370Z,60
2019-04-25T04:43:17.978Z,80
2019-04-25T04:44:16.708Z,85
2019-04-25T04:45:14.236Z,85
2019-04-25T04:46:14.104Z,95
2019-04-25T04:47:14.375Z,110
2019-04-25T04:48:14.447Z,120
2019-04-25T04:49:14.404Z,125
2019-04-25T04:50:16.614Z,130
2019-04-25T04:51:14.827Z,135
2019-04-25T04:52:18.842Z,145
2019-04-25T04:53:14.904Z,140
2019-04-25T04:54:15.880Z,145
2019-04-25T04:55:23.189Z,150
2019-04-25T04:56:15.573Z,160
2019-04-25T04:57:40.947Z,160
2019-04-25T04:58:16.358Z,160
2019-04-25T04:59:14.570Z,165
2019-04-25T05:00:14.520Z,170
2019-04-25T05:01:14.725Z,175
2019-04-25T05:02:17.372Z,180
2019-04-25T05:03:15.789Z,185
2019-04-25T05:04:14.830Z,185
2019-04-25T05:05:15.980Z,190
2019-04-25T05:06:14.762Z,195
2019-04-25T05:07:14.916Z,195
2019-04-25T05:08:14.901Z,200
2019-04-25T05:09:15.481Z,205
2019-04-25T05:10:16.350Z,210
2019-04-25T05:11:15.761Z,210
2019-04-25T05:12:15.189Z,210
2019-04-25T05:13:15.627Z,215
2019-04-25T05:14:15.233Z,135
2019-04-25T05:15:15.238Z,115
2019-04-25T05:16:15.043Z,210
2019-04-25T05:17:15.427Z,185
2019-04-25T05:18:17.091Z,210
2019-04-25T05:19:15.501Z,220
2019-04-25T05:20:15.966Z,220
2019-04-25T05:21:15.652Z,205
2019-04-25T05:22:14.485Z,200
2019-04-25T05:23:18.859Z,195
2019-04-25T05:24:16.356Z,195
2019-04-25T05:25:15.159Z,165
2019-04-25T05:26:16.006Z,210
2019-04-25T05:27:15.331Z,225
2019-04-25T05:28:18.403Z,130
2019-04-25T05:29:16.199Z,125
2019-04-25T05:30:15.640Z,120
2019-04-25T05:31:15.661Z,120
2019-04-25T05:32:15.730Z,125
2019-04-25T05:33:13.807Z,120
2019-04-25T05:34:15.613Z,125
2019-04-25T05:35:13.401Z,280
2019-04-25T05:36:18.490Z,130
2019-04-25T05:37:13.649Z,125
2019-04-25T05:38:14.418Z,175
2019-04-25T05:39:15.617Z,190
2019-04-25T05:40:18.225Z,200
2019-04-25T05:41:14.104Z,205
2019-04-25T05:42:18.482Z,210
2019-04-25T05:43:14.286Z,205
2019-04-25T05:44:14.216Z,195
2019-04-25T05:45:18.529Z,180
2019-04-25T05:46:13.451Z,165
2019-04-25T05:47:14.377Z,145
2019-04-25T05:48:17.586Z,260
2019-04-25T05:49:17.104Z,315
2019-04-25T05:50:13.881Z,200
2019-04-25T05:51:13.687Z,130
2019-04-25T05:52:13.959Z,130
2019-04-25T05:53:14.154Z,130
2019-04-25T05:54:14.306Z,135
2019-04-25T05:55:14.238Z,135
2019-04-25T05:56:13.888Z,135
2019-04-25T05:57:13.735Z,135
2019-04-25T05:58:13.799Z,140
2019-04-25T05:59:15.853Z,140
2019-04-25T06:00:13.396Z,140
2019-04-25T06:01:13.422Z,140
2019-04-25T06:02:13.947Z,130
2019-04-25T06:03:13.676Z,130
2019-04-25T06:04:17.800Z,130
2019-04-25T06:05:13.269Z,135
2019-04-25T06:06:13.397Z,135
2019-04-25T06:07:17.876Z,140
2019-04-25T06:08:14.108Z,145
2019-04-25T06:09:14.105Z,145
2019-04-25T06:10:14.368Z,150
2019-04-25T06:11:13.569Z,160
2019-04-25T06:12:15.572Z,180
2019-04-25T06:13:13.846Z,195
2019-04-25T06:14:13.497Z,220
2019-04-25T06:15:13.190Z,245
2019-04-25T06:16:13.348Z,270
2019-04-25T06:17:13.681Z,275
2019-04-25T06:18:13.976Z,275
2019-04-25T06:19:29.988Z,305
2019-04-25T06:20:15.896Z,260
2019-04-25T06:21:13.268Z,175
2019-04-25T06:22:15.078Z,285
2019-04-25T06:23:13.313Z,290
2019-04-25T06:24:15.669Z,285
2019-04-25T06:25:30.437Z,295
2019-04-25T06:26:45.476Z,295
2019-04-25T06:27:13.911Z,295
2019-04-25T06:28:13.708Z,295
2019-04-25T06:29:13.432Z,325
2019-04-25T06:30:13.953Z,325
2019-04-25T06:31:19.703Z,325
2019-04-25T06:32:19.047Z,330
2019-04-25T06:33:13.359Z,325
2019-04-25T06:34:14.181Z,330
2019-04-25T06:35:14.364Z,330
2019-04-25T06:36:13.950Z,330
2019-04-25T06:37:16.336Z,330
2019-04-25T06:38:13.395Z,335
2019-04-25T06:39:14.167Z,335
2019-04-25T06:40:16.078Z,340
2019-04-25T06:41:13.599Z,340
2019-04-25T06:42:13.803Z,345
2019-04-25T06:43:13.641Z,345
2019-04-25T06:44:13.711Z,345
2019-04-25T06:45:13.492Z,345
2019-04-25T06:46:14.030Z,340
2019-04-25T06:47:12.967Z,340
2019-04-25T06:48:13.962Z,340
2019-04-25T06:49:13.413Z,340
2019-04-25T06:50:13.617Z,340
2019-04-25T06:51:13.478Z,345
2019-04-25T06:52:13.889Z,340
2019-04-25T06:53:15.992Z,340
2019-04-25T06:54:13.448Z,340
2019-04-25T06:55:14.114Z,335
2019-04-25T06:56:13.733Z,340
2019-04-25T06:57:14.095Z,345
2019-04-25T06:58:21.405Z,345
2019-04-25T06:59:13.733Z,345
2019-04-25T07:00:14.132Z,350
2019-04-25T07:01:13.634Z,345
2019-04-25T07:02:13.961Z,350
2019-04-25T07:03:15.488Z,345
2019-04-25T07:04:14.031Z,345
2019-04-25T07:05:25.769Z,345
2019-04-25T07:06:14.706Z,345
2019-04-25T07:07:24.493Z,345
2019-04-25T07:08:13.339Z,345
2019-04-25T07:09:14.588Z,345
2019-04-25T07:10:13.312Z,345
2019-04-25T07:11:13.974Z,345
2019-04-25T07:12:13.513Z,345
2019-04-25T07:13:14.217Z,345
2019-04-25T07:14:14.181Z,345
2019-04-25T07:15:13.734Z,345
2019-04-25T07:16:13.761Z,345
2019-04-25T07:17:14.258Z,345
2019-04-25T07:18:13.925Z,345
2019-04-25T07:19:14.716Z,345
2019-04-25T07:20:13.785Z,345
2019-04-25T07:21:14.175Z,345
2019-04-25T07:22:13.920Z,340
2019-04-25T07:23:13.609Z,340
2019-04-25T07:24:14.226Z,335
2019-04-25T07:25:13.298Z,335
2019-04-25T07:26:13.594Z,320
2019-04-25T07:27:13.732Z,300
2019-04-25T07:28:28.837Z,255
2019-04-25T07:29:15.859Z,245
2019-04-25T07:30:13.575Z,240
2019-04-25T07:31:13.411Z,240
2019-04-25T07:32:16.933Z,235
2019-04-25T07:33:13.859Z,235
2019-04-25T07:34:13.563Z,245
2019-04-25T07:35:13.570Z,260
2019-04-25T07:36:13.820Z,285
2019-04-25T07:37:13.366Z,280
2019-04-25T07:38:14.032Z,260
2019-04-25T07:39:20.177Z,250
2019-04-25T07:40:13.957Z,250
2019-04-25T07:41:17.067Z,275
2019-04-25T07:42:14.011Z,285
2019-04-25T07:43:15.612Z,295
2019-04-25T07:44:14.632Z,305
2019-04-25T07:45:14.199Z,305
2019-04-25T07:46:13.563Z,310
2019-04-25T07:47:13.662Z,310
2019-04-25T07:48:14.001Z,310
2019-04-25T07:49:13.900Z,310
2019-04-25T07:50:15.339Z,305
2019-04-25T07:51:16.221Z,305
2019-04-25T07:52:16.322Z,305
2019-04-25T07:53:16.523Z,310
2019-04-25T07:54:14.378Z,315
2019-04-25T07:55:13.789Z,315
2019-04-25T07:56:14.205Z,320
2019-04-25T07:57:13.508Z,320
2019-04-25T07:58:14.328Z,320
2019-04-25T07:59:13.837Z,320
2019-04-25T08:00:15.648Z,320
2019-04-25T08:01:13.963Z,315
2019-04-25T08:02:13.695Z,315
2019-04-25T08:03:13.760Z,315
2019-04-25T08:04:13.854Z,315
2019-04-25T08:05:14.351Z,315
2019-04-25T08:06:15.997Z,310
2019-04-25T08:07:14.220Z,310
2019-04-25T08:08:13.549Z,310
2019-04-25T08:09:15.657Z,310
2019-04-25T08:10:14.099Z,310
2019-04-25T08:11:14.112Z,310
2019-04-25T08:12:13.513Z,310
2019-04-25T08:13:15.459Z,310
2019-04-25T08:14:14.386Z,305
2019-04-25T08:15:13.980Z,305
2019-04-25T08:16:16.869Z,305
2019-04-25T08:17:14.451Z,305
2019-04-25T08:18:13.947Z,305
2019-04-25T08:19:13.665Z,300
2019-04-25T08:20:15.199Z,300
2019-04-25T08:21:15.319Z,300
2019-04-25T08:22:14.055Z,300
2019-04-25T08:23:13.843Z,295
2019-04-25T08:24:13.932Z,295
2019-04-25T08:25:13.769Z,295
2019-04-25T08:26:14.260Z,295
2019-04-25T08:27:15.653Z,295
2019-04-25T08:28:13.766Z,290
2019-04-25T08:29:15.437Z,290
2019-04-25T08:30:14.099Z,285
2019-04-25T08:31:15.675Z,285
2019-04-25T08:32:14.219Z,285
2019-04-25T08:33:13.933Z,280
2019-04-25T08:34:14.439Z,285
2019-04-25T08:35:13.874Z,285
2019-04-25T08:36:18.289Z,285
2019-04-25T08:37:29.553Z,285
2019-04-25T08:38:16.180Z,285
2019-04-25T08:39:14.496Z,290
2019-04-25T08:40:13.735Z,285
2019-04-25T08:41:14.012Z,280
2019-04-25T08:42:15.782Z,280
2019-04-25T08:43:14.640Z,280
2019-04-25T08:44:14.155Z,275
2019-04-25T08:45:15.671Z,270
2019-04-25T08:46:14.099Z,265
2019-04-25T08:47:14.515Z,260
2019-04-25T08:48:15.725Z,255
2019-04-25T08:49:16.543Z,255
2019-04-25T08:50:31.240Z,255
2019-04-25T08:51:13.577Z,255
2019-04-25T08:52:15.610Z,255
2019-04-25T08:53:15.266Z,255
2019-04-25T08:54:13.779Z,255
2019-04-25T08:55:14.325Z,255
2019-04-25T08:56:17.225Z,255
2019-04-25T08:57:13.896Z,255
2019-04-25T08:58:14.041Z,255
2019-04-25T08:59:18.960Z,255
2019-04-25T09:00:16.763Z,255
2019-04-25T09:01:14.351Z,255
2019-04-25T09:02:13.831Z,260
2019-04-25T09:03:16.654Z,255
2019-04-25T09:04:15.525Z,255
2019-04-25T09:05:16.810Z,255
2019-04-25T09:06:15.757Z,255
2019-04-25T09:07:15.933Z,255
2019-04-25T09:08:14.271Z,255
2019-04-25T09:09:16.426Z,255
2019-04-25T09:10:15.116Z,255
2019-04-25T09:11:15.722Z,255
2019-04-25T09:12:14.016Z,255
2019-04-25T09:13:15.903Z,255
2019-04-25T09:14:15.831Z,255
2019-04-25T09:15:14.192Z,255
2019-04-25T09:16:15.482Z,255
2019-04-25T09:17:14.253Z,255
2019-04-25T09:18:14.148Z,255
2019-04-25T09:19:14.216Z,255
2019-04-25T09:20:13.965Z,255
2019-04-25T09:21:16.137Z,255
2019-04-25T09:22:15.741Z,255
2019-04-25T09:23:16.081Z,255
2019-04-25T09:24:13.845Z,255
2019-04-25T09:25:13.886Z,255
2019-04-25T09:26:16.744Z,255
2019-04-25T09:27:15.795Z,255
2019-04-25T09:28:14.392Z,255
2019-04-25T09:29:28.290Z,260
2019-04-25T09:30:16.702Z,255
2019-04-25T09:31:16.100Z,255
2019-04-25T09:32:14.128Z,255
2019-04-25T09:33:15.635Z,255
2019-04-25T09:34:13.975Z,255
2019-04-25T09:35:13.729Z,255
2019-04-25T09:36:16.664Z,255
2019-04-25T09:37:14.235Z,255
2019-04-25T09:38:15.489Z,255
2019-04-25T09:39:13.888Z,250
2019-04-25T09:40:14.446Z,250
2019-04-25T09:41:17.528Z,250
2019-04-25T09:42:14.266Z,250
2019-04-25T09:43:15.742Z,250
2019-04-25T09:44:14.408Z,250
2019-04-25T09:45:15.223Z,250
2019-04-25T09:46:15.713Z,250
2019-04-25T09:47:13.696Z,245
2019-04-25T09:48:15.607Z,245
2019-04-25T09:49:14.121Z,245
2019-04-25T09:50:14.515Z,240
2019-04-25T09:51:15.984Z,240
2019-04-25T09:52:15.776Z,240
2019-04-25T09:53:28.107Z,240
2019-04-25T09:54:15.166Z,240
2019-04-25T09:55:15.663Z,240
2019-04-25T09:56:14.213Z,235
2019-04-25T09:57:15.848Z,235
2019-04-25T09:58:15.191Z,235
2019-04-25T09:59:14.002Z,235
2019-04-25T10:00:15.441Z,235
2019-04-25T10:01:16.319Z,235
2019-04-25T10:02:13.729Z,235
2019-04-25T10:03:13.956Z,235
2019-04-25T10:04:13.725Z,230
2019-04-25T10:05:14.031Z,230
2019-04-25T10:06:15.727Z,230
2019-04-25T10:07:14.282Z,230
2019-04-25T10:08:15.631Z,225
2019-04-25T10:09:16.259Z,225
2019-04-25T10:10:15.886Z,225
2019-04-25T10:11:14.776Z,225
2019-04-25T10:12:15.682Z,225
2019-04-25T10:13:15.617Z,225
2019-04-25T10:14:13.635Z,225
2019-04-25T10:15:14.369Z,225
2019-04-25T10:16:14.109Z,225
2019-04-25T10:17:15.837Z,225
2019-04-25T10:18:16.659Z,225
2019-04-25T10:19:15.674Z,220
2019-04-25T10:20:16.932Z,220
2019-04-25T10:21:14.489Z,220
2019-04-25T10:22:16.032Z,220
2019-04-25T10:23:15.639Z,220
2019-04-25T10:24:15.769Z,220
2019-04-25T10:25:13.803Z,220
2019-04-25T10:26:14.329Z,220
2019-04-25T10:27:14.054Z,220
2019-04-25T10:28:15.661Z,220
2019-04-25T10:29:14.544Z,225
2019-04-25T10:30:30.647Z,220
2019-04-25T10:31:16.123Z,220
2019-04-25T10:32:15.472Z,220
2019-04-25T10:33:14.246Z,220
2019-04-25T10:34:14.333Z,220
2019-04-25T10:35:14.877Z,225
2019-04-25T10:36:14.509Z,215
2019-04-25T10:37:15.923Z,220
2019-04-25T10:38:14.060Z,225
2019-04-25T10:39:21.756Z,225
2019-04-25T10:40:15.834Z,225
2019-04-25T10:41:16.569Z,225
2019-04-25T10:42:15.968Z,225
2019-04-25T10:43:14.218Z,225
2019-04-25T10:44:14.301Z,225
2019-04-25T10:45:30.071Z,230
2019-04-25T10:46:16.467Z,230
2019-04-25T10:47:14.117Z,225
2019-04-25T10:48:16.046Z,220
2019-04-25T10:49:14.650Z,210
2019-04-25T10:50:15.927Z,205
2019-04-25T10:51:16.381Z,220
2019-04-25T10:52:15.630Z,225
2019-04-25T10:53:14.622Z,230
2019-04-25T10:54:14.675Z,230
2019-04-25T10:55:14.253Z,230
2019-04-25T10:56:16.375Z,230
2019-04-25T10:57:15.891Z,230
2019-04-25T10:58:14.259Z,230
2019-04-25T10:59:14.564Z,225
2019-04-25T11:00:18.629Z,230
2019-04-25T11:01:17.598Z,215
2019-04-25T11:02:15.230Z,230
2019-04-25T11:03:14.685Z,225
2019-04-25T11:04:15.974Z,230
2019-04-25T11:05:16.087Z,230
2019-04-25T11:06:14.224Z,230
2019-04-25T11:07:16.020Z,230
2019-04-25T11:08:16.919Z,225
2019-04-25T11:09:14.236Z,225
2019-04-25T11:10:14.188Z,225
2019-04-25T11:11:14.244Z,225
2019-04-25T11:12:14.512Z,225
2019-04-25T11:13:14.438Z,215
2019-04-25T11:14:18.310Z,220
2019-04-25T11:15:14.427Z,220
2019-04-25T11:16:15.882Z,220
2019-04-25T11:17:17.497Z,220
2019-04-25T11:18:15.809Z,220
2019-04-25T11:19:16.216Z,220
2019-04-25T11:20:16.785Z,220
2019-04-25T11:21:16.217Z,220
2019-04-25T11:22:16.130Z,215
2019-04-25T11:23:14.072Z,215
2019-04-25T11:24:14.727Z,215
2019-04-25T11:25:17.272Z,215
2019-04-25T11:26:16.268Z,215
2019-04-25T11:27:15.612Z,215
2019-04-25T11:28:14.504Z,215
2019-04-25T11:29:16.103Z,215
2019-04-25T11:30:20.844Z,215
2019-04-25T11:31:14.627Z,215
2019-04-25T11:32:19.741Z,215
2019-04-25T11:33:14.549Z,220
2019-04-25T11:34:17.028Z,215
2019-04-25T11:35:16.397Z,215
2019-04-25T11:36:15.751Z,215
2019-04-25T11:37:17.151Z,215
2019-04-25T11:38:16.229Z,215
2019-04-25T11:39:15.914Z,215
2019-04-25T11:40:14.831Z,215
2019-04-25T11:41:16.578Z,215
2019-04-25T11:42:16.867Z,220
2019-04-25T11:43:14.298Z,215
2019-04-25T11:44:16.282Z,215
2019-04-25T11:45:16.778Z,215
2019-04-25T11:46:16.432Z,220
2019-04-25T11:47:20.060Z,220
2019-04-25T11:48:15.862Z,220
2019-04-25T11:49:17.431Z,215
2019-04-25T11:50:16.400Z,215
2019-04-25T11:51:16.266Z,215
2019-04-25T11:52:30.295Z,215
2019-04-25T11:53:14.813Z,215
2019-04-25T11:54:16.351Z,215
2019-04-25T11:55:16.679Z,215
2019-04-25T11:56:16.152Z,215
2019-04-25T11:57:16.288Z,215
2019-04-25T11:58:16.579Z,215
2019-04-25T11:59:16.428Z,215
2019-04-25T12:00:26.701Z,220
2019-04-25T12:01:15.939Z,225
2019-04-25T12:02:15.762Z,220
2019-04-25T12:03:14.858Z,220
2019-04-25T12:04:15.807Z,220
2019-04-25T12:05:17.435Z,220
2019-04-25T12:06:16.577Z,220
2019-04-25T12:07:19.090Z,225
2019-04-25T12:08:15.628Z,225
2019-04-25T12:09:16.318Z,225
2019-04-25T12:10:14.642Z,225
2019-04-25T12:11:16.394Z,225
2019-04-25T12:12:16.723Z,225
2019-04-25T12:13:16.018Z,220
2019-04-25T12:14:14.933Z,225
2019-04-25T12:15:16.895Z,225
2019-04-25T12:16:16.564Z,225
2019-04-25T12:17:14.467Z,220
2019-04-25T12:18:16.219Z,215
2019-04-25T12:19:16.296Z,215
2019-04-25T12:20:14.437Z,220
2019-04-25T12:21:16.039Z,230
2019-04-25T12:22:15.976Z,225
2019-04-25T12:23:21.355Z,225
2019-04-25T12:24:16.165Z,225
2019-04-25T12:25:17.303Z,220
2019-04-25T12:26:16.407Z,225
2019-04-25T12:27:14.973Z,220
2019-04-25T12:28:16.615Z,230
2019-04-25T12:29:16.711Z,230
2019-04-25T12:30:16.412Z,225
2019-04-25T12:31:15.863Z,225
2019-04-25T12:32:16.537Z,225
2019-04-25T12:33:28.533Z,215
2019-04-25T12:34:16.530Z,215
2019-04-25T12:35:16.670Z,215
2019-04-25T12:36:15.780Z,220
2019-04-25T12:37:14.761Z,225
2019-04-25T12:38:16.293Z,220
2019-04-25T12:39:16.498Z,220
2019-04-25T12:40:16.509Z,220
2019-04-25T12:41:14.853Z,220
2019-04-25T12:42:16.805Z,220
2019-04-25T12:43:16.189Z,220
2019-04-25T12:44:15.772Z,220
2019-04-25T12:45:16.515Z,220
2019-04-25T12:46:14.937Z,225
2019-04-25T12:47:15.781Z,220
2019-04-25T12:48:16.885Z,220
2019-04-25T12:49:15.559Z,220
2019-04-25T12:50:18.695Z,220
2019-04-25T12:51:15.915Z,215
2019-04-25T12:52:14.356Z,220
2019-04-25T12:53:16.359Z,220
2019-04-25T12:54:16.246Z,225
2019-04-25T12:55:16.321Z,225
2019-04-25T12:56:14.442Z,225
2019-04-25T12:57:16.613Z,220
2019-04-25T12:58:15.985Z,220
2019-04-25T12:59:14.369Z,215
2019-04-25T13:00:16.430Z,215
2019-04-25T13:01:14.921Z,220
2019-04-25T13:02:15.751Z,225
2019-04-25T13:03:16.809Z,230
2019-04-25T13:04:14.613Z,225
2019-04-25T13:05:16.658Z,215
2019-04-25T13:06:16.138Z,220
2019-04-25T13:07:16.129Z,220
2019-04-25T13:08:16.826Z,230
2019-04-25T13:09:14.146Z,245
2019-04-25T13:10:17.587Z,245
2019-04-25T13:11:20.858Z,245
2019-04-25T13:12:17.297Z,245
2019-04-25T13:13:17.719Z,245
2019-04-25T13:14:15.787Z,240
2019-04-25T13:15:17.806Z,235
2019-04-25T13:16:15.603Z,235
2019-04-25T13:17:18.412Z,230
2019-04-25T13:18:14.941Z,230
2019-04-25T13:19:34.171Z,220
2019-04-25T13:20:15.953Z,220
2019-04-25T13:21:16.882Z,220
2019-04-25T13:22:14.985Z,220
2019-04-25T13:23:14.689Z,220
2019-04-25T13:24:15.089Z,220
2019-04-25T13:25:16.460Z,225
2019-04-25T13:26:14.564Z,230
2019-04-25T13:27:17.573Z,230
2019-04-25T13:28:19.187Z,235
2019-04-25T13:29:16.364Z,245
2019-04-25T13:30:18.744Z,250
2019-04-25T13:31:22.847Z,245
2019-04-25T13:32:15.787Z,250
2019-04-25T13:33:17.595Z,255
2019-04-25T13:34:16.300Z,255
2019-04-25T13:35:18.379Z,255
2019-04-25T13:36:15.513Z,260
2019-04-25T13:37:16.626Z,260
2019-04-25T13:38:15.616Z,265
2019-04-25T13:39:16.846Z,260
2019-04-25T13:40:16.944Z,265
2019-04-25T13:41:15.329Z,265
2019-04-25T13:42:16.554Z,270
2019-04-25T13:43:15.260Z,265
2019-04-25T13:44:16.689Z,265
2019-04-25T13:45:16.670Z,270
2019-04-25T13:46:25.047Z,270
2019-04-25T13:47:16.402Z,275
2019-04-25T13:48:15.666Z,280
2019-04-25T13:49:16.468Z,285
2019-04-25T13:50:15.650Z,295
2019-04-25T13:51:16.657Z,290
2019-04-25T13:52:14.857Z,290
2019-04-25T13:53:15.448Z,285
2019-04-25T13:54:15.710Z,290
2019-04-25T13:55:16.106Z,290
2019-04-25T13:56:15.759Z,295
2019-04-25T13:57:15.742Z,300
2019-04-25T13:58:16.729Z,300
2019-04-25T13:59:15.366Z,300
2019-04-25T14:00:16.592Z,300
2019-04-25T14:01:27.600Z,305
2019-04-25T14:02:16.268Z,300
2019-04-25T14:03:14.853Z,305
2019-04-25T14:04:16.630Z,300